sensor_id;sensor_type;location;lat;lon;timestamp;P1;durP1;ratioP1;P2;durP2;ratioP2
65045;SDS011;54657;52.022;5.534;2023-05-01T00:00:51;4.00;;;2.10;;
65045;SDS011;54657;52.022;5.534;2023-05-01T00:03:17;2.95;;;2.30;;
65045;SDS011;54657;52.022;5.534;2023-05-01T00:05:43;2.28;;;2.05;;
65045;SDS011;54657;52.022;5.534;2023-05-01T00:08:09;3.28;;;2.40;;
65045;SDS011;54657;52.022;5.534;2023-05-01T00:10:35;2.80;;;1.95;;
65045;SDS011;54657;52.022;5.534;2023-05-01T00:13:01;2.70;;;1.77;;
65045;SDS011;54657;52.022;5.534;2023-05-01T00:15:28;2.63;;;1.80;;
65045;SDS011;54657;52.022;5.534;2023-05-01T00:17:54;2.83;;;2.33;;
65045;SDS011;54657;52.022;5.534;2023-05-01T00:20:19;2.08;;;1.80;;
65045;SDS011;54657;52.022;5.534;2023-05-01T00:22:45;3.40;;;2.13;;
65045;SDS011;54657;52.022;5.534;2023-05-01T00:25:11;3.00;;;2.00;;
65045;SDS011;54657;52.022;5.534;2023-05-01T00:27:37;1.80;;;1.70;;
65045;SDS011;54657;52.022;5.534;2023-05-01T00:30:02;3.20;;;1.65;;
65045;SDS011;54657;52.022;5.534;2023-05-01T00:32:29;3.10;;;1.70;;
65045;SDS011;54657;52.022;5.534;2023-05-01T00:34:54;2.78;;;1.85;;
65045;SDS011;54657;52.022;5.534;2023-05-01T00:37:21;2.80;;;1.90;;
65045;SDS011;54657;52.022;5.534;2023-05-01T00:39:47;1.80;;;1.70;;
65045;SDS011;54657;52.022;5.534;2023-05-01T00:42:13;1.65;;;1.50;;
65045;SDS011;54657;52.022;5.534;2023-05-01T00:44:39;3.35;;;1.88;;
65045;SDS011;54657;52.022;5.534;2023-05-01T00:47:04;2.20;;;1.55;;
65045;SDS011;54657;52.022;5.534;2023-05-01T00:49:30;2.85;;;1.70;;
65045;SDS011;54657;52.022;5.534;2023-05-01T00:51:56;4.85;;;1.90;;
65045;SDS011;54657;52.022;5.534;2023-05-01T00:54:22;1.77;;;1.67;;
65045;SDS011;54657;52.022;5.534;2023-05-01T00:56:49;2.85;;;1.77;;
65045;SDS011;54657;52.022;5.534;2023-05-01T00:59:16;1.75;;;1.58;;
65045;SDS011;54657;52.022;5.534;2023-05-01T01:01:41;3.90;;;1.63;;
65045;SDS011;54657;52.022;5.534;2023-05-01T01:04:07;2.63;;;1.80;;
65045;SDS011;54657;52.022;5.534;2023-05-01T01:06:38;2.00;;;1.67;;
65045;SDS011;54657;52.022;5.534;2023-05-01T01:09:12;3.08;;;1.92;;
65045;SDS011;54657;52.022;5.534;2023-05-01T01:14:26;1.70;;;1.60;;
65045;SDS011;54657;52.022;5.534;2023-05-01T01:16:57;2.25;;;1.67;;
65045;SDS011;54657;52.022;5.534;2023-05-01T01:19:57;4.82;;;1.90;;
65045;SDS011;54657;52.022;5.534;2023-05-01T01:22:44;5.05;;;2.05;;
65045;SDS011;54657;52.022;5.534;2023-05-01T01:36:18;3.08;;;1.83;;
65045;SDS011;54657;52.022;5.534;2023-05-01T01:38:45;2.83;;;2.30;;
65045;SDS011;54657;52.022;5.534;2023-05-01T01:41:29;2.47;;;1.65;;
65045;SDS011;54657;52.022;5.534;2023-05-01T01:44:02;1.73;;;1.63;;
65045;SDS011;54657;52.022;5.534;2023-05-01T01:46:34;3.90;;;1.95;;
65045;SDS011;54657;52.022;5.534;2023-05-01T01:49:05;3.75;;;1.90;;
65045;SDS011;54657;52.022;5.534;2023-05-01T01:51:33;2.33;;;1.55;;
65045;SDS011;54657;52.022;5.534;2023-05-01T01:54:01;3.35;;;1.80;;
65045;SDS011;54657;52.022;5.534;2023-05-01T01:56:28;3.00;;;1.48;;
65045;SDS011;54657;52.022;5.534;2023-05-01T01:58:57;3.47;;;2.05;;
65045;SDS011;54657;52.022;5.534;2023-05-01T02:01:25;2.10;;;1.70;;
65045;SDS011;54657;52.022;5.534;2023-05-01T02:03:53;2.67;;;1.80;;
65045;SDS011;54657;52.022;5.534;2023-05-01T02:06:19;2.10;;;1.80;;
65045;SDS011;54657;52.022;5.534;2023-05-01T02:08:46;2.83;;;1.80;;
65045;SDS011;54657;52.022;5.534;2023-05-01T02:11:14;2.67;;;1.90;;
65045;SDS011;54657;52.022;5.534;2023-05-01T02:13:42;3.47;;;1.80;;
65045;SDS011;54657;52.022;5.534;2023-05-01T02:16:09;2.05;;;1.80;;
65045;SDS011;54657;52.022;5.534;2023-05-01T02:18:37;2.17;;;2.00;;
65045;SDS011;54657;52.022;5.534;2023-05-01T02:21:04;2.30;;;1.95;;
65045;SDS011;54657;52.022;5.534;2023-05-01T02:23:30;3.38;;;2.35;;
65045;SDS011;54657;52.022;5.534;2023-05-01T02:25:57;5.43;;;2.40;;
65045;SDS011;54657;52.022;5.534;2023-05-01T02:28:26;3.15;;;2.13;;
65045;SDS011;54657;52.022;5.534;2023-05-01T02:30:54;2.50;;;2.30;;
65045;SDS011;54657;52.022;5.534;2023-05-01T02:33:21;3.45;;;2.13;;
65045;SDS011;54657;52.022;5.534;2023-05-01T02:35:47;3.85;;;2.08;;
65045;SDS011;54657;52.022;5.534;2023-05-01T02:38:13;4.68;;;2.33;;
65045;SDS011;54657;52.022;5.534;2023-05-01T02:40:40;4.47;;;2.08;;
65045;SDS011;54657;52.022;5.534;2023-05-01T02:43:11;2.30;;;2.10;;
65045;SDS011;54657;52.022;5.534;2023-05-01T02:45:40;4.95;;;2.20;;
65045;SDS011;54657;52.022;5.534;2023-05-01T02:48:08;2.28;;;2.08;;
65045;SDS011;54657;52.022;5.534;2023-05-01T02:50:36;3.80;;;1.75;;
65045;SDS011;54657;52.022;5.534;2023-05-01T02:53:04;3.90;;;2.03;;
65045;SDS011;54657;52.022;5.534;2023-05-01T02:55:31;1.92;;;1.80;;
65045;SDS011;54657;52.022;5.534;2023-05-01T02:57:57;2.88;;;2.00;;
65045;SDS011;54657;52.022;5.534;2023-05-01T03:00:24;3.13;;;1.98;;
65045;SDS011;54657;52.022;5.534;2023-05-01T03:02:52;3.08;;;1.92;;
65045;SDS011;54657;52.022;5.534;2023-05-01T03:05:17;4.22;;;1.92;;
65045;SDS011;54657;52.022;5.534;2023-05-01T03:07:44;2.10;;;1.90;;
65045;SDS011;54657;52.022;5.534;2023-05-01T03:10:10;3.95;;;2.38;;
65045;SDS011;54657;52.022;5.534;2023-05-01T03:12:35;4.95;;;2.42;;
65045;SDS011;54657;52.022;5.534;2023-05-01T03:15:01;4.53;;;2.15;;
65045;SDS011;54657;52.022;5.534;2023-05-01T03:17:27;3.08;;;2.25;;
65045;SDS011;54657;52.022;5.534;2023-05-01T03:19:53;3.25;;;2.00;;
65045;SDS011;54657;52.022;5.534;2023-05-01T03:22:18;2.28;;;2.00;;
65045;SDS011;54657;52.022;5.534;2023-05-01T03:24:44;4.93;;;2.50;;
65045;SDS011;54657;52.022;5.534;2023-05-01T03:27:11;4.53;;;2.30;;
65045;SDS011;54657;52.022;5.534;2023-05-01T03:29:37;2.63;;;2.30;;
65045;SDS011;54657;52.022;5.534;2023-05-01T03:32:02;2.28;;;2.10;;
65045;SDS011;54657;52.022;5.534;2023-05-01T03:34:29;2.20;;;2.00;;
65045;SDS011;54657;52.022;5.534;2023-05-01T03:36:54;2.92;;;2.05;;
65045;SDS011;54657;52.022;5.534;2023-05-01T03:39:20;2.88;;;2.33;;
65045;SDS011;54657;52.022;5.534;2023-05-01T03:41:46;2.75;;;2.30;;
65045;SDS011;54657;52.022;5.534;2023-05-01T03:44:12;5.22;;;2.65;;
65045;SDS011;54657;52.022;5.534;2023-05-01T03:46:37;3.15;;;2.40;;
65045;SDS011;54657;52.022;5.534;2023-05-01T03:49:03;3.90;;;2.50;;
65045;SDS011;54657;52.022;5.534;2023-05-01T03:51:28;4.40;;;2.05;;
65045;SDS011;54657;52.022;5.534;2023-05-01T03:53:54;3.47;;;2.35;;
65045;SDS011;54657;52.022;5.534;2023-05-01T03:56:25;2.45;;;2.25;;
65045;SDS011;54657;52.022;5.534;2023-05-01T03:58:51;5.03;;;2.25;;
65045;SDS011;54657;52.022;5.534;2023-05-01T04:01:17;2.33;;;1.92;;
65045;SDS011;54657;52.022;5.534;2023-05-01T04:03:43;2.70;;;2.20;;
65045;SDS011;54657;52.022;5.534;2023-05-01T04:06:10;2.33;;;2.13;;
65045;SDS011;54657;52.022;5.534;2023-05-01T04:08:36;5.57;;;2.72;;
65045;SDS011;54657;52.022;5.534;2023-05-01T04:11:01;3.92;;;2.20;;
65045;SDS011;54657;52.022;5.534;2023-05-01T04:13:27;2.55;;;2.35;;
65045;SDS011;54657;52.022;5.534;2023-05-01T04:15:52;4.18;;;2.30;;
65045;SDS011;54657;52.022;5.534;2023-05-01T04:18:20;3.33;;;2.65;;
65045;SDS011;54657;52.022;5.534;2023-05-01T04:20:45;2.85;;;2.50;;
65045;SDS011;54657;52.022;5.534;2023-05-01T04:23:11;4.60;;;2.90;;
65045;SDS011;54657;52.022;5.534;2023-05-01T04:25:36;2.53;;;2.33;;
65045;SDS011;54657;52.022;5.534;2023-05-01T04:28:02;3.28;;;2.05;;
65045;SDS011;54657;52.022;5.534;2023-05-01T04:30:28;2.97;;;2.60;;
65045;SDS011;54657;52.022;5.534;2023-05-01T04:32:55;4.65;;;2.60;;
65045;SDS011;54657;52.022;5.534;2023-05-01T04:35:22;3.42;;;2.60;;
65045;SDS011;54657;52.022;5.534;2023-05-01T04:37:47;4.07;;;2.63;;
65045;SDS011;54657;52.022;5.534;2023-05-01T04:40:13;2.95;;;2.55;;
65045;SDS011;54657;52.022;5.534;2023-05-01T04:42:39;2.55;;;2.35;;
65045;SDS011;54657;52.022;5.534;2023-05-01T04:45:05;2.90;;;2.50;;
65045;SDS011;54657;52.022;5.534;2023-05-01T04:47:30;3.65;;;2.80;;
65045;SDS011;54657;52.022;5.534;2023-05-01T04:49:56;3.13;;;2.78;;
65045;SDS011;54657;52.022;5.534;2023-05-01T04:52:22;4.10;;;2.17;;
65045;SDS011;54657;52.022;5.534;2023-05-01T04:54:47;5.03;;;2.78;;
65045;SDS011;54657;52.022;5.534;2023-05-01T04:57:13;2.72;;;2.53;;
65045;SDS011;54657;52.022;5.534;2023-05-01T04:59:39;5.75;;;2.65;;
65045;SDS011;54657;52.022;5.534;2023-05-01T05:02:04;3.83;;;2.80;;
65045;SDS011;54657;52.022;5.534;2023-05-01T05:04:30;5.45;;;2.45;;
65045;SDS011;54657;52.022;5.534;2023-05-01T05:06:55;3.60;;;2.60;;
65045;SDS011;54657;52.022;5.534;2023-05-01T05:09:21;3.35;;;2.88;;
65045;SDS011;54657;52.022;5.534;2023-05-01T05:11:46;3.20;;;2.80;;
65045;SDS011;54657;52.022;5.534;2023-05-01T05:14:12;3.83;;;2.70;;
65045;SDS011;54657;52.022;5.534;2023-05-01T05:16:37;5.22;;;2.60;;
65045;SDS011;54657;52.022;5.534;2023-05-01T05:19:03;5.40;;;3.20;;
65045;SDS011;54657;52.022;5.534;2023-05-01T05:21:31;3.92;;;3.03;;
65045;SDS011;54657;52.022;5.534;2023-05-01T05:23:56;5.75;;;2.92;;
65045;SDS011;54657;52.022;5.534;2023-05-01T05:26:22;3.22;;;2.88;;
65045;SDS011;54657;52.022;5.534;2023-05-01T05:28:49;3.25;;;2.92;;
65045;SDS011;54657;52.022;5.534;2023-05-01T05:31:14;3.78;;;2.83;;
65045;SDS011;54657;52.022;5.534;2023-05-01T05:33:40;3.17;;;2.70;;
65045;SDS011;54657;52.022;5.534;2023-05-01T05:36:06;4.35;;;2.78;;
65045;SDS011;54657;52.022;5.534;2023-05-01T05:38:31;4.72;;;3.15;;
65045;SDS011;54657;52.022;5.534;2023-05-01T05:40:57;2.60;;;2.35;;
65045;SDS011;54657;52.022;5.534;2023-05-01T05:43:23;3.35;;;2.63;;
65045;SDS011;54657;52.022;5.534;2023-05-01T05:45:49;3.50;;;2.88;;
65045;SDS011;54657;52.022;5.534;2023-05-01T05:48:14;4.63;;;3.03;;
65045;SDS011;54657;52.022;5.534;2023-05-01T05:50:40;4.70;;;2.70;;
65045;SDS011;54657;52.022;5.534;2023-05-01T05:53:06;6.47;;;3.20;;
65045;SDS011;54657;52.022;5.534;2023-05-01T05:55:33;4.25;;;2.97;;
65045;SDS011;54657;52.022;5.534;2023-05-01T05:57:58;5.32;;;2.83;;
65045;SDS011;54657;52.022;5.534;2023-05-01T06:00:24;3.63;;;2.97;;
65045;SDS011;54657;52.022;5.534;2023-05-01T06:02:49;4.60;;;3.20;;
65045;SDS011;54657;52.022;5.534;2023-05-01T06:05:15;3.88;;;3.10;;
65045;SDS011;54657;52.022;5.534;2023-05-01T06:07:40;3.60;;;3.22;;
65045;SDS011;54657;52.022;5.534;2023-05-01T06:10:07;8.15;;;3.65;;
65045;SDS011;54657;52.022;5.534;2023-05-01T06:12:33;4.95;;;3.47;;
65045;SDS011;54657;52.022;5.534;2023-05-01T06:14:59;4.78;;;3.60;;
65045;SDS011;54657;52.022;5.534;2023-05-01T06:17:25;5.75;;;3.13;;
65045;SDS011;54657;52.022;5.534;2023-05-01T06:19:50;3.60;;;3.30;;
65045;SDS011;54657;52.022;5.534;2023-05-01T06:22:17;5.15;;;3.38;;
65045;SDS011;54657;52.022;5.534;2023-05-01T06:24:43;4.28;;;3.50;;
65045;SDS011;54657;52.022;5.534;2023-05-01T06:27:09;3.53;;;3.17;;
65045;SDS011;54657;52.022;5.534;2023-05-01T06:29:35;6.50;;;3.45;;
65045;SDS011;54657;52.022;5.534;2023-05-01T06:32:01;8.93;;;3.80;;
65045;SDS011;54657;52.022;5.534;2023-05-01T06:34:27;8.52;;;3.50;;
65045;SDS011;54657;52.022;5.534;2023-05-01T06:36:52;5.15;;;3.45;;
65045;SDS011;54657;52.022;5.534;2023-05-01T06:39:18;8.38;;;3.53;;
65045;SDS011;54657;52.022;5.534;2023-05-01T06:41:46;7.10;;;3.72;;
65045;SDS011;54657;52.022;5.534;2023-05-01T06:44:12;6.80;;;3.70;;
65045;SDS011;54657;52.022;5.534;2023-05-01T06:46:38;6.53;;;3.47;;
65045;SDS011;54657;52.022;5.534;2023-05-01T06:49:03;4.10;;;3.55;;
65045;SDS011;54657;52.022;5.534;2023-05-01T06:51:29;5.05;;;3.60;;
65045;SDS011;54657;52.022;5.534;2023-05-01T06:53:55;6.32;;;3.63;;
65045;SDS011;54657;52.022;5.534;2023-05-01T06:56:21;8.50;;;3.35;;
65045;SDS011;54657;52.022;5.534;2023-05-01T06:58:47;6.97;;;3.65;;
65045;SDS011;54657;52.022;5.534;2023-05-01T07:01:12;8.35;;;4.63;;
65045;SDS011;54657;52.022;5.534;2023-05-01T07:03:38;10.30;;;5.00;;
65045;SDS011;54657;52.022;5.534;2023-05-01T07:06:04;8.38;;;4.38;;
65045;SDS011;54657;52.022;5.534;2023-05-01T07:08:30;8.02;;;4.93;;
65045;SDS011;54657;52.022;5.534;2023-05-01T07:10:56;10.20;;;4.57;;
65045;SDS011;54657;52.022;5.534;2023-05-01T07:13:22;8.85;;;4.70;;
65045;SDS011;54657;52.022;5.534;2023-05-01T07:15:48;6.75;;;4.80;;
65045;SDS011;54657;52.022;5.534;2023-05-01T07:18:14;8.25;;;4.78;;
65045;SDS011;54657;52.022;5.534;2023-05-01T07:20:41;8.45;;;4.28;;
65045;SDS011;54657;52.022;5.534;2023-05-01T07:23:06;9.63;;;4.25;;
65045;SDS011;54657;52.022;5.534;2023-05-01T07:25:33;9.93;;;5.65;;
65045;SDS011;54657;52.022;5.534;2023-05-01T07:28:01;8.23;;;4.35;;
65045;SDS011;54657;52.022;5.534;2023-05-01T07:30:28;8.07;;;4.43;;
65045;SDS011;54657;52.022;5.534;2023-05-01T07:32:54;8.10;;;4.78;;
65045;SDS011;54657;52.022;5.534;2023-05-01T07:35:21;9.73;;;4.82;;
65045;SDS011;54657;52.022;5.534;2023-05-01T07:37:48;6.88;;;4.63;;
65045;SDS011;54657;52.022;5.534;2023-05-01T07:40:15;8.75;;;4.70;;
65045;SDS011;54657;52.022;5.534;2023-05-01T07:42:41;8.52;;;4.50;;
65045;SDS011;54657;52.022;5.534;2023-05-01T07:45:07;5.70;;;4.72;;
65045;SDS011;54657;52.022;5.534;2023-05-01T07:47:32;6.80;;;4.65;;
65045;SDS011;54657;52.022;5.534;2023-05-01T07:49:58;8.82;;;5.00;;
65045;SDS011;54657;52.022;5.534;2023-05-01T07:52:25;7.85;;;4.95;;
65045;SDS011;54657;52.022;5.534;2023-05-01T07:54:50;8.18;;;4.63;;
65045;SDS011;54657;52.022;5.534;2023-05-01T07:57:16;10.88;;;5.00;;
65045;SDS011;54657;52.022;5.534;2023-05-01T07:59:42;6.50;;;4.53;;
65045;SDS011;54657;52.022;5.534;2023-05-01T08:02:08;10.05;;;4.57;;
65045;SDS011;54657;52.022;5.534;2023-05-01T08:04:33;7.13;;;4.25;;
65045;SDS011;54657;52.022;5.534;2023-05-01T08:06:59;6.95;;;3.92;;
65045;SDS011;54657;52.022;5.534;2023-05-01T08:09:24;6.32;;;4.75;;
65045;SDS011;54657;52.022;5.534;2023-05-01T08:11:50;7.10;;;4.40;;
65045;SDS011;54657;52.022;5.534;2023-05-01T08:14:15;7.50;;;4.05;;
65045;SDS011;54657;52.022;5.534;2023-05-01T08:16:42;11.32;;;4.57;;
65045;SDS011;54657;52.022;5.534;2023-05-01T08:19:08;7.53;;;3.67;;
65045;SDS011;54657;52.022;5.534;2023-05-01T08:21:33;7.00;;;4.25;;
65045;SDS011;54657;52.022;5.534;2023-05-01T08:23:59;7.20;;;4.40;;
65045;SDS011;54657;52.022;5.534;2023-05-01T08:26:25;6.25;;;4.32;;
65045;SDS011;54657;52.022;5.534;2023-05-01T08:28:51;4.47;;;4.05;;
65045;SDS011;54657;52.022;5.534;2023-05-01T08:31:16;7.47;;;3.90;;
65045;SDS011;54657;52.022;5.534;2023-05-01T08:33:43;9.10;;;4.28;;
65045;SDS011;54657;52.022;5.534;2023-05-01T08:36:09;7.00;;;4.70;;
65045;SDS011;54657;52.022;5.534;2023-05-01T08:38:35;10.00;;;4.38;;
65045;SDS011;54657;52.022;5.534;2023-05-01T08:41:01;8.65;;;4.15;;
65045;SDS011;54657;52.022;5.534;2023-05-01T08:43:29;7.18;;;4.53;;
65045;SDS011;54657;52.022;5.534;2023-05-01T08:45:55;7.32;;;4.15;;
65045;SDS011;54657;52.022;5.534;2023-05-01T08:48:25;4.82;;;3.80;;
65045;SDS011;54657;52.022;5.534;2023-05-01T08:50:52;5.38;;;3.80;;
65045;SDS011;54657;52.022;5.534;2023-05-01T08:53:21;4.30;;;3.55;;
65045;SDS011;54657;52.022;5.534;2023-05-01T08:55:48;5.05;;;3.80;;
65045;SDS011;54657;52.022;5.534;2023-05-01T08:58:16;10.02;;;5.00;;
65045;SDS011;54657;52.022;5.534;2023-05-01T09:00:43;4.47;;;3.72;;
65045;SDS011;54657;52.022;5.534;2023-05-01T09:03:11;5.22;;;3.42;;
65045;SDS011;54657;52.022;5.534;2023-05-01T09:05:39;4.70;;;3.45;;
65045;SDS011;54657;52.022;5.534;2023-05-01T09:08:05;5.30;;;3.90;;
65045;SDS011;54657;52.022;5.534;2023-05-01T09:10:31;9.20;;;4.78;;
65045;SDS011;54657;52.022;5.534;2023-05-01T09:13:01;5.20;;;4.70;;
65045;SDS011;54657;52.022;5.534;2023-05-01T09:15:31;5.90;;;4.45;;
65045;SDS011;54657;52.022;5.534;2023-05-01T09:17:58;6.18;;;5.07;;
65045;SDS011;54657;52.022;5.534;2023-05-01T09:20:25;8.73;;;4.97;;
65045;SDS011;54657;52.022;5.534;2023-05-01T09:22:50;8.65;;;4.35;;
65045;SDS011;54657;52.022;5.534;2023-05-01T09:25:16;6.45;;;4.35;;
65045;SDS011;54657;52.022;5.534;2023-05-01T09:27:43;9.30;;;4.60;;
65045;SDS011;54657;52.022;5.534;2023-05-01T09:30:09;5.72;;;4.78;;
65045;SDS011;54657;52.022;5.534;2023-05-01T09:35:53;8.33;;;5.00;;
65045;SDS011;54657;52.022;5.534;2023-05-01T09:38:20;8.95;;;5.13;;
65045;SDS011;54657;52.022;5.534;2023-05-01T09:40:47;7.43;;;5.38;;
65045;SDS011;54657;52.022;5.534;2023-05-01T09:43:14;8.90;;;4.90;;
65045;SDS011;54657;52.022;5.534;2023-05-01T09:46:05;6.13;;;4.68;;
65045;SDS011;54657;52.022;5.534;2023-05-01T09:48:35;6.57;;;4.40;;
65045;SDS011;54657;52.022;5.534;2023-05-01T09:54:03;7.63;;;5.00;;
65045;SDS011;54657;52.022;5.534;2023-05-01T09:56:30;8.93;;;5.55;;
65045;SDS011;54657;52.022;5.534;2023-05-01T09:58:57;9.13;;;5.32;;
65045;SDS011;54657;52.022;5.534;2023-05-01T10:01:39;7.55;;;4.95;;
65045;SDS011;54657;52.022;5.534;2023-05-01T10:04:06;7.90;;;4.80;;
65045;SDS011;54657;52.022;5.534;2023-05-01T10:06:33;8.00;;;4.95;;
65045;SDS011;54657;52.022;5.534;2023-05-01T10:09:00;11.25;;;4.88;;
65045;SDS011;54657;52.022;5.534;2023-05-01T10:11:26;10.35;;;4.72;;
65045;SDS011;54657;52.022;5.534;2023-05-01T10:14:05;8.52;;;4.47;;
65045;SDS011;54657;52.022;5.534;2023-05-01T10:16:33;7.63;;;4.45;;
65045;SDS011;54657;52.022;5.534;2023-05-01T10:19:00;9.90;;;5.55;;
65045;SDS011;54657;52.022;5.534;2023-05-01T10:21:27;13.07;;;5.05;;
65045;SDS011;54657;52.022;5.534;2023-05-01T10:23:53;7.15;;;4.90;;
65045;SDS011;54657;52.022;5.534;2023-05-01T10:26:19;9.52;;;4.90;;
65045;SDS011;54657;52.022;5.534;2023-05-01T10:28:46;8.45;;;4.97;;
65045;SDS011;54657;52.022;5.534;2023-05-01T10:31:13;6.72;;;3.85;;
65045;SDS011;54657;52.022;5.534;2023-05-01T10:33:39;7.65;;;4.55;;
65045;SDS011;54657;52.022;5.534;2023-05-01T10:36:08;6.53;;;4.25;;
65045;SDS011;54657;52.022;5.534;2023-05-01T10:38:44;9.35;;;4.40;;
65045;SDS011;54657;52.022;5.534;2023-05-01T10:41:12;6.65;;;4.15;;
65045;SDS011;54657;52.022;5.534;2023-05-01T10:43:39;4.28;;;3.80;;
65045;SDS011;54657;52.022;5.534;2023-05-01T10:51:15;6.72;;;3.20;;
65045;SDS011;54657;52.022;5.534;2023-05-01T10:53:46;3.92;;;3.08;;
65045;SDS011;54657;52.022;5.534;2023-05-01T10:58:57;5.63;;;3.33;;
65045;SDS011;54657;52.022;5.534;2023-05-01T11:01:27;6.97;;;3.40;;
65045;SDS011;54657;52.022;5.534;2023-05-01T11:03:54;5.75;;;3.20;;
65045;SDS011;54657;52.022;5.534;2023-05-01T11:06:21;6.15;;;3.30;;
65045;SDS011;54657;52.022;5.534;2023-05-01T11:08:47;7.45;;;3.40;;
65045;SDS011;54657;52.022;5.534;2023-05-01T11:19:01;6.00;;;3.50;;
65045;SDS011;54657;52.022;5.534;2023-05-01T11:21:49;6.00;;;3.53;;
65045;SDS011;54657;52.022;5.534;2023-05-01T11:24:15;6.07;;;4.07;;
65045;SDS011;54657;52.022;5.534;2023-05-01T11:26:43;5.82;;;3.55;;
65045;SDS011;54657;52.022;5.534;2023-05-01T11:29:12;4.03;;;3.42;;
65045;SDS011;54657;52.022;5.534;2023-05-01T11:31:38;6.60;;;3.42;;
65045;SDS011;54657;52.022;5.534;2023-05-01T11:34:03;2.85;;;2.53;;
65045;SDS011;54657;52.022;5.534;2023-05-01T11:39:27;6.53;;;2.80;;
65045;SDS011;54657;52.022;5.534;2023-05-01T11:42:14;5.75;;;2.80;;
65045;SDS011;54657;52.022;5.534;2023-05-01T11:44:39;3.88;;;2.67;;
65045;SDS011;54657;52.022;5.534;2023-05-01T11:47:04;2.78;;;2.20;;
65045;SDS011;54657;52.022;5.534;2023-05-01T11:49:31;5.32;;;2.60;;
65045;SDS011;54657;52.022;5.534;2023-05-01T11:51:57;6.45;;;2.55;;
65045;SDS011;54657;52.022;5.534;2023-05-01T11:54:23;4.07;;;2.53;;
65045;SDS011;54657;52.022;5.534;2023-05-01T11:56:56;4.00;;;2.28;;
65045;SDS011;54657;52.022;5.534;2023-05-01T11:59:23;6.03;;;2.65;;
65045;SDS011;54657;52.022;5.534;2023-05-01T12:01:50;5.47;;;2.67;;
65045;SDS011;54657;52.022;5.534;2023-05-01T12:04:22;2.67;;;2.35;;
65045;SDS011;54657;52.022;5.534;2023-05-01T12:06:51;3.63;;;2.50;;
65045;SDS011;54657;52.022;5.534;2023-05-01T12:09:26;4.85;;;2.50;;
65045;SDS011;54657;52.022;5.534;2023-05-01T12:11:52;3.90;;;2.88;;
65045;SDS011;54657;52.022;5.534;2023-05-01T12:14:18;7.22;;;3.10;;
65045;SDS011;54657;52.022;5.534;2023-05-01T12:16:45;4.78;;;2.55;;
65045;SDS011;54657;52.022;5.534;2023-05-01T12:19:12;5.28;;;2.85;;
65045;SDS011;54657;52.022;5.534;2023-05-01T12:21:39;3.83;;;2.22;;
65045;SDS011;54657;52.022;5.534;2023-05-01T12:24:09;2.75;;;1.58;;
65045;SDS011;54657;52.022;5.534;2023-05-01T12:26:35;2.53;;;1.67;;
65045;SDS011;54657;52.022;5.534;2023-05-01T12:29:05;5.50;;;2.50;;
65045;SDS011;54657;52.022;5.534;2023-05-01T12:31:32;5.97;;;2.72;;
65045;SDS011;54657;52.022;5.534;2023-05-01T12:33:58;4.90;;;2.55;;
65045;SDS011;54657;52.022;5.534;2023-05-01T12:36:28;3.70;;;2.42;;
65045;SDS011;54657;52.022;5.534;2023-05-01T12:39:05;4.93;;;3.00;;
65045;SDS011;54657;52.022;5.534;2023-05-01T12:41:42;3.45;;;2.90;;
65045;SDS011;54657;52.022;5.534;2023-05-01T12:44:22;4.93;;;2.40;;
65045;SDS011;54657;52.022;5.534;2023-05-01T12:49:18;6.28;;;3.50;;
65045;SDS011;54657;52.022;5.534;2023-05-01T12:51:45;4.90;;;3.08;;
65045;SDS011;54657;52.022;5.534;2023-05-01T12:54:16;7.07;;;4.65;;
65045;SDS011;54657;52.022;5.534;2023-05-01T12:56:52;5.15;;;4.40;;
65045;SDS011;54657;52.022;5.534;2023-05-01T12:59:28;7.53;;;5.07;;
65045;SDS011;54657;52.022;5.534;2023-05-01T13:02:01;7.55;;;5.07;;
65045;SDS011;54657;52.022;5.534;2023-05-01T13:04:28;9.18;;;4.97;;
65045;SDS011;54657;52.022;5.534;2023-05-01T13:06:55;10.60;;;5.25;;
65045;SDS011;54657;52.022;5.534;2023-05-01T13:09:21;8.07;;;5.25;;
65045;SDS011;54657;52.022;5.534;2023-05-01T13:11:58;9.48;;;4.80;;
65045;SDS011;54657;52.022;5.534;2023-05-01T13:14:29;9.57;;;5.18;;
65045;SDS011;54657;52.022;5.534;2023-05-01T13:17:01;7.45;;;4.72;;
65045;SDS011;54657;52.022;5.534;2023-05-01T13:19:27;8.93;;;5.50;;
65045;SDS011;54657;52.022;5.534;2023-05-01T13:21:56;7.32;;;4.38;;
65045;SDS011;54657;52.022;5.534;2023-05-01T13:24:22;9.95;;;5.10;;
65045;SDS011;54657;52.022;5.534;2023-05-01T13:26:55;5.47;;;4.28;;
65045;SDS011;54657;52.022;5.534;2023-05-01T13:29:25;9.48;;;4.68;;
65045;SDS011;54657;52.022;5.534;2023-05-01T13:31:51;7.57;;;4.65;;
65045;SDS011;54657;52.022;5.534;2023-05-01T13:34:20;7.55;;;4.57;;
65045;SDS011;54657;52.022;5.534;2023-05-01T13:36:51;6.57;;;4.43;;
65045;SDS011;54657;52.022;5.534;2023-05-01T13:39:18;6.70;;;4.00;;
65045;SDS011;54657;52.022;5.534;2023-05-01T13:41:44;6.07;;;4.40;;
65045;SDS011;54657;52.022;5.534;2023-05-01T13:44:10;8.82;;;4.78;;
65045;SDS011;54657;52.022;5.534;2023-05-01T13:46:36;5.80;;;4.75;;
65045;SDS011;54657;52.022;5.534;2023-05-01T13:49:06;5.68;;;4.22;;
65045;SDS011;54657;52.022;5.534;2023-05-01T13:51:32;5.65;;;4.10;;
65045;SDS011;54657;52.022;5.534;2023-05-01T13:54:02;9.85;;;4.40;;
65045;SDS011;54657;52.022;5.534;2023-05-01T13:56:28;7.13;;;4.20;;
65045;SDS011;54657;52.022;5.534;2023-05-01T13:58:54;6.18;;;4.32;;
65045;SDS011;54657;52.022;5.534;2023-05-01T14:04:14;8.85;;;4.22;;
65045;SDS011;54657;52.022;5.534;2023-05-01T14:06:45;7.82;;;4.70;;
65045;SDS011;54657;52.022;5.534;2023-05-01T14:09:12;6.55;;;4.60;;
65045;SDS011;54657;52.022;5.534;2023-05-01T14:11:45;9.50;;;3.88;;
65045;SDS011;54657;52.022;5.534;2023-05-01T14:14:15;10.57;;;4.57;;
65045;SDS011;54657;52.022;5.534;2023-05-01T14:16:45;8.20;;;4.80;;
65045;SDS011;54657;52.022;5.534;2023-05-01T14:19:13;9.45;;;4.60;;
65045;SDS011;54657;52.022;5.534;2023-05-01T14:21:41;7.93;;;4.72;;
65045;SDS011;54657;52.022;5.534;2023-05-01T14:24:07;8.57;;;5.13;;
65045;SDS011;54657;52.022;5.534;2023-05-01T14:26:33;9.43;;;4.70;;
65045;SDS011;54657;52.022;5.534;2023-05-01T14:29:00;8.38;;;5.03;;
65045;SDS011;54657;52.022;5.534;2023-05-01T14:31:27;8.88;;;4.10;;
65045;SDS011;54657;52.022;5.534;2023-05-01T14:33:58;5.00;;;4.30;;
65045;SDS011;54657;52.022;5.534;2023-05-01T14:36:28;6.90;;;4.10;;
65045;SDS011;54657;52.022;5.534;2023-05-01T14:38:58;6.78;;;3.95;;
65045;SDS011;54657;52.022;5.534;2023-05-01T14:41:24;7.50;;;4.28;;
65045;SDS011;54657;52.022;5.534;2023-05-01T14:43:50;6.10;;;3.90;;
65045;SDS011;54657;52.022;5.534;2023-05-01T14:46:37;8.80;;;4.05;;
65045;SDS011;54657;52.022;5.534;2023-05-01T14:49:10;4.35;;;3.65;;
65045;SDS011;54657;52.022;5.534;2023-05-01T14:51:47;5.63;;;3.50;;
65045;SDS011;54657;52.022;5.534;2023-05-01T14:54:13;4.10;;;3.70;;
65045;SDS011;54657;52.022;5.534;2023-05-01T14:56:39;4.45;;;3.72;;
65045;SDS011;54657;52.022;5.534;2023-05-01T14:59:06;6.90;;;3.22;;
65045;SDS011;54657;52.022;5.534;2023-05-01T15:01:32;3.83;;;2.78;;
65045;SDS011;54657;52.022;5.534;2023-05-01T15:03:57;3.53;;;2.88;;
65045;SDS011;54657;52.022;5.534;2023-05-01T15:06:23;3.55;;;2.70;;
65045;SDS011;54657;52.022;5.534;2023-05-01T15:08:49;4.70;;;3.28;;
65045;SDS011;54657;52.022;5.534;2023-05-01T15:11:15;3.60;;;3.15;;
65045;SDS011;54657;52.022;5.534;2023-05-01T15:13:42;5.88;;;3.60;;
65045;SDS011;54657;52.022;5.534;2023-05-01T15:16:09;5.15;;;3.10;;
65045;SDS011;54657;52.022;5.534;2023-05-01T15:18:35;4.90;;;3.38;;
65045;SDS011;54657;52.022;5.534;2023-05-01T15:21:01;5.90;;;3.72;;
65045;SDS011;54657;52.022;5.534;2023-05-01T15:23:27;3.60;;;3.20;;
65045;SDS011;54657;52.022;5.534;2023-05-01T15:25:53;3.22;;;2.92;;
65045;SDS011;54657;52.022;5.534;2023-05-01T15:28:18;5.57;;;3.72;;
65045;SDS011;54657;52.022;5.534;2023-05-01T15:30:44;3.88;;;3.40;;
65045;SDS011;54657;52.022;5.534;2023-05-01T15:33:11;4.03;;;3.50;;